HTTG

Tanga Airport

Airport
ICAO code
HTTG
IATA Code
TGT
Summary
ICAO Region
AFI
ICAO Territory
Location

Tanga, Tanga Region

Serving
Tanga
Elevation
128 ft
Coordinates
5° 5' 32" S , 39° 4' 18" E
KCC
Metar
Observation
HTTG 061700Z 15011KT 9999 BKN019 25/21 Q1015
Station
Tanga
Date/Time
2022-10-06 17:00:00
Wind direction
150°
Wind speed
11 kts
Lowest cloud amount
broken clouds
Temperature
25°C
Dew point
21°C
Humidity
78%
QNH
1015 hPa
Weather condition
n/a

Tanga Airport is a small domestic airport in northeastern Tanzania serving the city of Tanga and the surrounding Tanga Region.

Climatology

Tropical Savanna climate (Köppen climate classification Aw)

Runways

Designator Length Width Surface Rops
6/24 1268 31 ASP No/No

Airport map

Aerial View

SKYbrary Partners:

Safety knowledge contributed by: